Omaha, Nebraska
Current Conditions -  °F | °C
As of 10:52 PM on Friday 24 Oct 2014 (Local Time) from KOMA Reporting Station
Clear Clear  
Wind Chill: 55°   Ceiling: Unl
Heat Index: 55°   Visibility: 8mi
Dew Point: 54°   Wind: 3mph
Humidity: 96%   Direction: 340°NNW
Pressure: 30"   Gusts: NA
Location:  41.26°N, 95.94°W
Report Text: KOMA 250352Z 34003KT 8SM CLR 13/12 A3000 RMK AO2 SLP157 T01280122
Loading
Personal Weather Stations






























Interactive Weather Map
Tropical Storm Tracking
New forecast layout! Learn more

10-Day Weather Forecast

Advertisements
Track Severe Weather on mobile